createdAt,value
2018-01-21T00:00:06.429Z,93.93
2018-01-21T00:01:08.921Z,93.95
2018-01-21T00:02:11.378Z,93.89
2018-01-21T00:03:13.838Z,93.90
2018-01-21T00:04:16.312Z,93.98
2018-01-21T00:05:18.765Z,94.28
2018-01-21T00:06:21.256Z,94.19
2018-01-21T00:07:23.732Z,93.91
2018-01-21T00:08:26.190Z,93.84
2018-01-21T00:09:28.663Z,94.03
2018-01-21T00:10:31.114Z,94.12
2018-01-21T00:11:33.608Z,94.06
2018-01-21T00:12:36.071Z,94.16
2018-01-21T00:13:38.573Z,94.32
2018-01-21T00:14:41.040Z,94.42
2018-01-21T00:15:43.516Z,94.48
2018-01-21T00:16:45.986Z,94.46
2018-01-21T00:17:48.456Z,93.69
2018-01-21T00:18:50.928Z,93.50
2018-01-21T00:19:53.400Z,93.84
2018-01-21T00:20:55.878Z,94.01
2018-01-21T00:21:58.371Z,94.33
2018-01-21T00:23:00.868Z,94.47
2018-01-21T00:24:03.325Z,94.53
2018-01-21T00:25:05.787Z,94.51
2018-01-21T00:26:08.262Z,94.52
2018-01-21T00:27:10.734Z,94.29
2018-01-21T00:28:13.253Z,94.43
2018-01-21T00:29:15.703Z,94.42
2018-01-21T00:30:18.199Z,94.28
2018-01-21T00:31:20.658Z,94.39
2018-01-21T00:32:23.133Z,94.17
2018-01-21T00:33:25.609Z,94.15
2018-01-21T00:34:28.076Z,94.21
2018-01-21T00:35:30.531Z,94.64
2018-01-21T00:36:33.007Z,94.63
2018-01-21T00:37:35.500Z,94.29
2018-01-21T00:38:37.972Z,94.39
2018-01-21T00:39:40.459Z,94.47
2018-01-21T00:40:42.921Z,94.64
2018-01-21T00:41:45.387Z,94.74
2018-01-21T00:42:47.888Z,94.69
2018-01-21T00:43:50.365Z,94.65
2018-01-21T00:44:52.825Z,94.35
2018-01-21T00:45:55.287Z,93.99
2018-01-21T00:46:57.768Z,94.24
2018-01-21T00:48:00.264Z,94.28
2018-01-21T00:49:02.759Z,94.61
2018-01-21T00:50:05.229Z,94.78
2018-01-21T00:51:07.693Z,94.61
2018-01-21T00:52:10.160Z,94.75
2018-01-21T00:53:12.653Z,94.99
2018-01-21T00:54:15.105Z,95.15
2018-01-21T00:55:17.564Z,94.75
2018-01-21T00:56:20.034Z,94.52
2018-01-21T00:57:22.507Z,94.30
2018-01-21T00:58:24.998Z,94.39
2018-01-21T00:59:27.461Z,94.34
2018-01-21T01:00:29.947Z,94.45
2018-01-21T01:01:32.428Z,94.66
2018-01-21T01:02:34.908Z,94.75
2018-01-21T01:03:37.390Z,94.92
2018-01-21T01:04:39.950Z,94.42
2018-01-21T01:05:42.421Z,94.42
2018-01-21T01:06:44.873Z,94.63
2018-01-21T01:07:47.329Z,94.93
2018-01-21T01:08:49.816Z,94.99
2018-01-21T01:09:52.287Z,95.22
2018-01-21T01:10:54.741Z,95.06
2018-01-21T01:11:57.193Z,95.06
2018-01-21T01:12:59.645Z,94.94
2018-01-21T01:14:02.133Z,94.79
2018-01-21T01:15:04.610Z,95.04
2018-01-21T01:16:07.066Z,95.22
2018-01-21T01:17:09.540Z,95.44
2018-01-21T01:18:12.160Z,95.47
2018-01-21T01:19:14.629Z,95.41
2018-01-21T01:20:17.109Z,95.58
2018-01-21T01:21:19.585Z,95.44
2018-01-21T01:22:22.038Z,95.51
2018-01-21T01:23:24.508Z,95.52
2018-01-21T01:24:26.981Z,95.52
2018-01-21T01:25:29.448Z,95.49
2018-01-21T01:26:31.898Z,95.44
2018-01-21T01:27:34.378Z,95.50
2018-01-21T01:28:36.834Z,95.63
2018-01-21T01:29:39.310Z,95.70
2018-01-21T01:30:41.775Z,95.47
2018-01-21T01:31:44.245Z,95.36
2018-01-21T01:32:46.720Z,95.10
2018-01-21T01:33:49.174Z,94.85
2018-01-21T01:34:51.649Z,94.79
2018-01-21T01:35:54.105Z,94.92
2018-01-21T01:36:56.560Z,94.79
2018-01-21T01:37:59.014Z,94.92
2018-01-21T01:39:01.480Z,94.86
2018-01-21T01:40:03.988Z,94.85
2018-01-21T01:41:06.455Z,94.87
2018-01-21T01:42:08.920Z,94.65
2018-01-21T01:43:11.405Z,94.51
2018-01-21T01:44:13.879Z,94.67
2018-01-21T01:45:16.357Z,94.41
2018-01-21T01:46:18.818Z,94.23
2018-01-21T01:47:21.274Z,94.50
2018-01-21T01:48:23.741Z,94.66
2018-01-21T01:49:26.368Z,94.89
2018-01-21T01:50:28.837Z,94.89
2018-01-21T01:51:31.316Z,94.98
2018-01-21T01:52:33.800Z,94.75
2018-01-21T01:53:36.298Z,94.65
2018-01-21T01:54:38.784Z,94.67
2018-01-21T01:55:41.270Z,94.42
2018-01-21T01:56:43.730Z,94.87
2018-01-21T01:57:46.220Z,95.04
2018-01-21T01:58:48.678Z,94.79
2018-01-21T01:59:51.208Z,94.59
2018-01-21T02:00:53.769Z,94.24
2018-01-21T02:01:56.221Z,94.03
2018-01-21T02:02:58.687Z,93.47
2018-01-21T02:04:01.249Z,93.68
2018-01-21T02:05:03.733Z,93.54
2018-01-21T02:06:06.210Z,93.02
2018-01-21T02:07:08.683Z,93.40
2018-01-21T02:08:11.272Z,93.54
2018-01-21T02:09:13.742Z,93.84
2018-01-21T02:10:16.208Z,94.20
2018-01-21T02:11:18.683Z,94.14
2018-01-21T02:12:21.147Z,94.16
2018-01-21T02:13:23.601Z,93.89
2018-01-21T02:14:26.205Z,93.84
2018-01-21T02:15:28.711Z,94.08
2018-01-21T02:16:31.177Z,94.14
2018-01-21T02:17:33.661Z,94.42
2018-01-21T02:18:36.117Z,94.47
2018-01-21T02:19:38.583Z,94.03
2018-01-21T02:20:41.033Z,93.95
2018-01-21T02:21:43.515Z,94.13
2018-01-21T02:22:45.979Z,94.59
2018-01-21T02:23:48.451Z,94.76
2018-01-21T02:24:50.941Z,95.10
2018-01-21T02:25:53.402Z,95.37
2018-01-21T02:26:55.908Z,95.56
2018-01-21T02:27:58.353Z,95.70
2018-01-21T02:29:00.800Z,95.66
2018-01-21T02:30:03.276Z,95.51
2018-01-21T02:31:05.744Z,95.40
2018-01-21T02:32:08.256Z,95.59
2018-01-21T02:33:10.720Z,95.65
2018-01-21T02:34:13.181Z,95.57
2018-01-21T02:35:15.630Z,95.41
2018-01-21T02:36:18.089Z,95.25
2018-01-21T02:37:20.565Z,95.28
2018-01-21T02:38:23.022Z,95.52
2018-01-21T02:39:25.550Z,95.46
2018-01-21T02:40:28.006Z,95.51
2018-01-21T02:41:30.474Z,95.51
2018-01-21T02:42:32.975Z,95.36
2018-01-21T02:43:35.459Z,95.46
2018-01-21T02:44:37.933Z,95.29
2018-01-21T02:45:40.390Z,95.25
2018-01-21T02:46:42.854Z,95.40
2018-01-21T02:47:45.331Z,95.53
2018-01-21T02:48:47.786Z,95.62
2018-01-21T02:49:50.249Z,95.29
2018-01-21T02:50:52.732Z,95.12
2018-01-21T02:51:55.190Z,94.94
2018-01-21T02:52:57.705Z,95.13
2018-01-21T02:54:00.162Z,95.35
2018-01-21T02:55:02.624Z,95.23
2018-01-21T02:56:05.096Z,95.28
2018-01-21T02:57:07.562Z,95.23
2018-01-21T02:58:10.039Z,95.32
2018-01-21T02:59:12.515Z,95.30
2018-01-21T03:00:14.994Z,95.25
2018-01-21T03:01:17.450Z,95.03
2018-01-21T03:02:19.909Z,94.93
2018-01-21T03:03:22.399Z,94.51
2018-01-21T03:04:24.854Z,94.39
2018-01-21T03:05:27.305Z,94.68
2018-01-21T03:06:29.773Z,94.75
2018-01-21T03:07:32.240Z,94.75
2018-01-21T03:08:34.728Z,93.83
2018-01-21T03:09:37.204Z,93.76
2018-01-21T03:10:39.671Z,93.98
2018-01-21T03:11:42.140Z,94.12
2018-01-21T03:12:44.596Z,94.42
2018-01-21T03:13:47.069Z,94.63
2018-01-21T03:14:49.521Z,94.93
2018-01-21T03:15:51.996Z,95.22
2018-01-21T03:16:54.458Z,95.42
2018-01-21T03:17:56.909Z,95.51
2018-01-21T03:18:59.395Z,95.44
2018-01-21T03:20:01.860Z,95.53
2018-01-21T03:21:04.328Z,95.77
2018-01-21T03:22:06.792Z,95.98
2018-01-21T03:23:09.268Z,96.01
2018-01-21T03:24:11.760Z,95.96
2018-01-21T03:25:14.223Z,95.52
2018-01-21T03:26:16.691Z,95.51
2018-01-21T03:27:19.156Z,95.78
2018-01-21T03:28:21.622Z,96.02
2018-01-21T03:29:24.121Z,96.21
2018-01-21T03:30:26.593Z,96.24
2018-01-21T03:31:29.070Z,96.24
2018-01-21T03:32:31.544Z,96.23
2018-01-21T03:33:33.997Z,96.27
2018-01-21T03:34:36.473Z,96.22
2018-01-21T03:35:38.925Z,96.21
2018-01-21T03:36:41.382Z,96.14
2018-01-21T03:37:43.840Z,95.92
2018-01-21T03:38:46.374Z,95.75
2018-01-21T03:39:48.854Z,95.70
2018-01-21T03:40:51.314Z,95.44
2018-01-21T03:41:53.765Z,95.32
2018-01-21T03:42:56.225Z,95.40
2018-01-21T03:43:58.695Z,95.43
2018-01-21T03:45:01.184Z,95.33
2018-01-21T03:46:03.645Z,95.23
2018-01-21T03:47:06.122Z,95.00
2018-01-21T03:48:08.588Z,95.09
2018-01-21T03:49:11.117Z,95.15
2018-01-21T03:50:13.611Z,95.21
2018-01-21T03:51:16.070Z,95.31
2018-01-21T03:52:18.530Z,95.37
2018-01-21T03:53:20.981Z,95.35
2018-01-21T03:54:23.437Z,95.23
2018-01-21T03:55:25.921Z,95.20
2018-01-21T03:56:28.389Z,94.99
2018-01-21T03:57:30.854Z,95.04
2018-01-21T03:58:33.348Z,95.13
2018-01-21T03:59:35.819Z,95.08
2018-01-21T04:00:38.354Z,94.94
2018-01-21T04:01:40.868Z,94.87
2018-01-21T04:02:43.339Z,94.72
2018-01-21T04:03:45.816Z,94.52
2018-01-21T04:04:48.296Z,94.34
2018-01-21T04:05:50.771Z,94.53
2018-01-21T04:06:53.221Z,94.53
2018-01-21T04:07:55.696Z,94.60
2018-01-21T04:08:58.174Z,94.46
2018-01-21T04:10:00.644Z,94.22
2018-01-21T04:11:03.142Z,94.41
2018-01-21T04:12:05.603Z,93.92
2018-01-21T04:13:08.071Z,93.90
2018-01-21T04:14:10.595Z,93.69
2018-01-21T04:15:13.056Z,93.74
2018-01-21T04:16:15.538Z,93.79
2018-01-21T04:17:18.021Z,93.39
2018-01-21T04:18:20.487Z,93.86
2018-01-21T04:19:22.965Z,94.29
2018-01-21T04:20:25.434Z,94.26
2018-01-21T04:21:27.927Z,94.44
2018-01-21T04:22:30.377Z,94.42
2018-01-21T04:23:32.829Z,94.22
2018-01-21T04:24:35.359Z,93.87
2018-01-21T04:25:37.828Z,93.70
2018-01-21T04:26:40.323Z,93.33
2018-01-21T04:27:42.778Z,93.25
2018-01-21T04:28:45.252Z,93.25
2018-01-21T04:29:47.732Z,93.63
2018-01-21T04:30:50.192Z,93.88
2018-01-21T04:31:52.678Z,93.99
2018-01-21T04:32:55.144Z,93.74
2018-01-21T04:33:57.604Z,94.13
2018-01-21T04:35:00.072Z,94.29
2018-01-21T04:36:02.525Z,94.47
2018-01-21T04:37:04.998Z,94.23
2018-01-21T04:38:07.453Z,94.02
2018-01-21T04:39:09.924Z,93.82
2018-01-21T04:40:12.390Z,94.12
2018-01-21T04:41:14.938Z,94.42
2018-01-21T04:42:17.424Z,94.41
2018-01-21T04:43:19.898Z,94.15
2018-01-21T04:44:22.390Z,93.76
2018-01-21T04:45:24.857Z,94.09
2018-01-21T04:46:27.309Z,94.21
2018-01-21T04:47:29.786Z,94.37
2018-01-21T04:48:32.241Z,94.42
2018-01-21T04:49:34.802Z,94.22
2018-01-21T04:50:37.272Z,94.23
2018-01-21T04:51:39.741Z,94.53
2018-01-21T04:52:42.230Z,94.48
2018-01-21T04:53:44.701Z,94.40
2018-01-21T04:54:47.153Z,94.66
2018-01-21T04:55:49.652Z,95.04
2018-01-21T04:56:52.123Z,95.29
2018-01-21T04:57:54.639Z,95.28
2018-01-21T04:58:57.120Z,95.21
2018-01-21T04:59:59.590Z,95.22
2018-01-21T05:01:02.064Z,95.37
2018-01-21T05:02:04.526Z,95.57
2018-01-21T05:03:07.023Z,95.59
2018-01-21T05:04:09.506Z,95.62
2018-01-21T05:05:11.987Z,95.44
2018-01-21T05:06:14.460Z,95.58
2018-01-21T05:07:16.927Z,95.71
2018-01-21T05:08:19.420Z,95.78
2018-01-21T05:09:21.874Z,95.34
2018-01-21T05:10:24.329Z,95.08
2018-01-21T05:11:26.792Z,94.54
2018-01-21T05:12:29.249Z,94.17
2018-01-21T05:13:31.725Z,93.94
2018-01-21T05:14:34.194Z,93.98
2018-01-21T05:15:36.653Z,94.03
2018-01-21T05:16:39.118Z,93.97
2018-01-21T05:17:41.573Z,94.09
2018-01-21T05:18:44.072Z,94.53
2018-01-21T05:19:46.526Z,94.88
2018-01-21T05:20:48.999Z,94.79
2018-01-21T05:21:51.486Z,94.51
2018-01-21T05:22:53.967Z,94.79
2018-01-21T05:23:56.445Z,94.97
2018-01-21T05:24:58.928Z,95.41
2018-01-21T05:26:01.403Z,95.39
2018-01-21T05:27:03.866Z,95.04
2018-01-21T05:28:06.322Z,94.85
2018-01-21T05:29:08.818Z,94.61
2018-01-21T05:30:11.279Z,94.20
2018-01-21T05:31:13.743Z,94.03
2018-01-21T05:32:16.225Z,93.66
2018-01-21T05:33:18.713Z,93.53
2018-01-21T05:34:21.197Z,93.29
2018-01-21T05:35:23.655Z,93.58
2018-01-21T05:36:26.117Z,93.91
2018-01-21T05:37:28.585Z,93.95
2018-01-21T05:38:31.169Z,92.78
2018-01-21T05:39:33.669Z,92.21
2018-01-21T05:40:36.155Z,92.28
2018-01-21T05:41:38.622Z,92.53
2018-01-21T05:42:41.081Z,92.98
2018-01-21T05:43:43.565Z,93.69
2018-01-21T05:44:46.045Z,93.81
2018-01-21T05:45:48.505Z,93.53
2018-01-21T05:46:50.992Z,93.38
2018-01-21T05:47:53.471Z,93.31
2018-01-21T05:48:55.944Z,92.99
2018-01-21T05:49:58.430Z,93.20
2018-01-21T05:51:00.907Z,93.49
2018-01-21T05:52:03.374Z,93.56
2018-01-21T05:53:05.848Z,93.92
2018-01-21T05:54:08.349Z,94.25
2018-01-21T05:55:10.867Z,94.35
2018-01-21T05:56:13.366Z,94.38
2018-01-21T05:57:15.834Z,94.43
2018-01-21T05:58:18.355Z,94.30
2018-01-21T05:59:20.817Z,94.18
2018-01-21T06:00:23.307Z,94.42
2018-01-21T06:01:25.775Z,94.77
2018-01-21T06:02:28.230Z,95.00
2018-01-21T06:03:30.693Z,95.24
2018-01-21T06:04:33.172Z,95.21
2018-01-21T06:05:35.665Z,94.85
2018-01-21T06:06:38.130Z,94.68
2018-01-21T06:07:40.666Z,94.77
2018-01-21T06:08:43.122Z,94.89
2018-01-21T06:09:45.590Z,94.78
2018-01-21T06:10:48.084Z,94.87
2018-01-21T06:11:50.559Z,95.03
2018-01-21T06:12:53.032Z,95.16
2018-01-21T06:13:55.494Z,95.25
2018-01-21T06:14:57.975Z,94.98
2018-01-21T06:16:00.496Z,94.84
2018-01-21T06:17:02.964Z,94.78
2018-01-21T06:18:05.426Z,94.75
2018-01-21T06:19:07.892Z,94.60
2018-01-21T06:20:10.364Z,94.22
2018-01-21T06:21:12.849Z,93.88
2018-01-21T06:22:15.305Z,93.69
2018-01-21T06:23:17.782Z,93.80
2018-01-21T06:24:20.252Z,94.18
2018-01-21T06:25:22.710Z,94.32
2018-01-21T06:26:25.195Z,94.29
2018-01-21T06:27:27.687Z,93.36
2018-01-21T06:28:30.168Z,93.45
2018-01-21T06:29:32.643Z,93.85
2018-01-21T06:30:35.111Z,94.17
2018-01-21T06:31:37.599Z,94.42
2018-01-21T06:32:40.054Z,94.48
2018-01-21T06:33:42.531Z,94.57
2018-01-21T06:34:44.998Z,93.90
2018-01-21T06:35:47.639Z,93.38
2018-01-21T06:36:50.119Z,93.49
2018-01-21T06:37:52.600Z,93.52
2018-01-21T06:38:55.159Z,93.56
2018-01-21T06:39:57.627Z,93.74
2018-01-21T06:41:00.095Z,93.29
2018-01-21T06:42:02.596Z,93.06
2018-01-21T06:43:05.071Z,93.13
2018-01-21T06:44:07.530Z,93.21
2018-01-21T06:45:10.012Z,93.41
2018-01-21T06:46:12.469Z,93.73
2018-01-21T06:47:14.945Z,93.84
2018-01-21T06:48:17.424Z,94.05
2018-01-21T06:49:19.906Z,93.79
2018-01-21T06:50:22.379Z,93.70
2018-01-21T06:51:24.834Z,93.58
2018-01-21T06:52:27.310Z,93.71
2018-01-21T06:53:29.787Z,93.59
2018-01-21T06:54:32.268Z,93.46
2018-01-21T06:55:34.727Z,93.68
2018-01-21T06:56:37.212Z,93.99
2018-01-21T06:57:39.712Z,94.32
2018-01-21T06:58:42.181Z,94.39
2018-01-21T06:59:44.641Z,94.32
2018-01-21T07:00:47.100Z,94.32
2018-01-21T07:01:49.572Z,94.60
2018-01-21T07:02:52.066Z,94.72
2018-01-21T07:03:54.544Z,94.57
2018-01-21T07:04:57.005Z,94.77
2018-01-21T07:05:59.462Z,94.84
2018-01-21T07:07:01.926Z,94.80
2018-01-21T07:08:04.410Z,94.79
2018-01-21T07:09:06.865Z,94.81
2018-01-21T07:10:09.388Z,94.97
2018-01-21T07:11:11.833Z,94.91
2018-01-21T07:12:14.316Z,94.70
2018-01-21T07:13:16.813Z,94.59
2018-01-21T07:14:19.291Z,94.48
2018-01-21T07:15:21.764Z,94.10
2018-01-21T07:16:24.247Z,94.19
2018-01-21T07:17:26.706Z,94.14
2018-01-21T07:18:29.190Z,94.21
2018-01-21T07:19:31.653Z,94.56
2018-01-21T07:20:34.110Z,94.87
2018-01-21T07:21:36.588Z,95.17
2018-01-21T07:22:39.068Z,95.31
2018-01-21T07:23:41.576Z,95.35
2018-01-21T07:24:44.068Z,95.31
2018-01-21T07:25:46.550Z,95.28
2018-01-21T07:26:49.022Z,95.35
2018-01-21T07:27:51.477Z,95.14
2018-01-21T07:28:53.974Z,94.02
2018-01-21T07:29:56.456Z,93.87
2018-01-21T07:30:58.930Z,93.97
2018-01-21T07:32:01.399Z,93.73
2018-01-21T07:33:03.886Z,93.91
2018-01-21T07:34:06.369Z,93.99
2018-01-21T07:35:08.862Z,94.16
2018-01-21T07:36:11.340Z,94.02
2018-01-21T07:37:13.824Z,93.75
2018-01-21T07:38:16.301Z,92.73
2018-01-21T07:39:19.272Z,92.40
2018-01-21T07:40:21.834Z,92.73
2018-01-21T07:41:24.308Z,93.00
2018-01-21T07:42:32.755Z,92.92
2018-01-21T07:43:35.228Z,92.83
2018-01-21T07:44:37.706Z,92.74
2018-01-21T07:45:40.171Z,92.63
2018-01-21T07:46:42.625Z,92.10
2018-01-21T07:47:45.100Z,92.08
2018-01-21T07:48:47.582Z,92.12
2018-01-21T07:49:50.070Z,92.08
2018-01-21T07:50:52.550Z,92.18
2018-01-21T07:51:55.033Z,92.23
2018-01-21T07:52:57.518Z,92.25
2018-01-21T07:53:59.982Z,92.57
2018-01-21T07:55:02.484Z,92.35
2018-01-21T07:56:04.946Z,92.06
2018-01-21T07:57:07.421Z,91.98
2018-01-21T07:58:09.918Z,91.81
2018-01-21T07:59:12.375Z,91.93
2018-01-21T08:00:14.882Z,92.00
2018-01-21T08:01:17.364Z,91.96
2018-01-21T08:02:19.848Z,92.10
2018-01-21T08:03:22.320Z,92.08
2018-01-21T08:04:24.817Z,91.97
2018-01-21T08:05:27.307Z,91.72
2018-01-21T08:06:29.772Z,92.08
2018-01-21T08:07:32.252Z,92.42
2018-01-21T08:08:34.719Z,92.65
2018-01-21T08:09:37.191Z,92.29
2018-01-21T08:10:39.789Z,92.51
2018-01-21T08:11:42.267Z,91.64
2018-01-21T08:12:44.739Z,91.44
2018-01-21T08:13:47.216Z,91.52
2018-01-21T08:14:49.678Z,91.03
2018-01-21T08:15:52.173Z,90.95
2018-01-21T08:16:54.644Z,90.63
2018-01-21T08:17:57.120Z,90.82
2018-01-21T08:18:59.599Z,90.70
2018-01-21T08:20:02.056Z,90.78
2018-01-21T08:21:04.541Z,90.57
2018-01-21T08:22:07.006Z,90.74
2018-01-21T08:23:09.472Z,90.71
2018-01-21T08:24:11.934Z,90.33
2018-01-21T08:25:14.411Z,89.84
2018-01-21T08:26:16.886Z,90.68
2018-01-21T08:27:19.351Z,89.50
2018-01-21T08:28:21.834Z,89.62
2018-01-21T08:29:24.308Z,90.60
2018-01-21T08:30:26.805Z,90.68
2018-01-21T08:31:29.300Z,90.06
2018-01-21T08:32:31.780Z,89.78
2018-01-21T08:33:34.245Z,89.39
2018-01-21T08:34:42.224Z,89.28
2018-01-21T08:35:50.316Z,89.37
2018-01-21T08:36:58.349Z,89.54
2018-01-21T08:38:06.342Z,89.87
2018-01-21T08:39:14.332Z,90.12
2018-01-21T08:40:22.354Z,89.64
2018-01-21T08:41:44.529Z,89.42
2018-01-21T08:42:47.018Z,89.81
2018-01-21T08:43:49.496Z,89.48
2018-01-21T08:44:51.986Z,88.69
2018-01-21T08:45:54.465Z,89.13
2018-01-21T08:46:56.954Z,89.22
2018-01-21T08:47:59.451Z,89.44
2018-01-21T08:49:01.924Z,89.29
2018-01-21T08:50:04.411Z,89.35
2018-01-21T08:51:06.926Z,89.88
2018-01-21T08:52:09.421Z,89.30
2018-01-21T08:53:11.916Z,88.66
2018-01-21T08:54:14.381Z,88.67
2018-01-21T08:55:16.836Z,88.81
2018-01-21T08:56:19.314Z,89.27
2018-01-21T08:57:21.775Z,88.78
2018-01-21T08:58:24.287Z,88.56
2018-01-21T08:59:26.758Z,87.70
2018-01-21T09:00:29.239Z,88.34
2018-01-21T09:01:31.728Z,88.79
2018-01-21T09:02:34.207Z,87.89
2018-01-21T09:03:36.686Z,87.85
2018-01-21T09:04:39.152Z,87.27
2018-01-21T09:05:41.620Z,86.79
2018-01-21T09:06:44.095Z,87.16
2018-01-21T09:07:46.560Z,87.47
2018-01-21T09:08:49.042Z,87.21
2018-01-21T09:09:51.498Z,87.97
2018-01-21T09:10:53.968Z,87.85
2018-01-21T09:11:56.426Z,87.93
2018-01-21T09:12:58.889Z,86.90
2018-01-21T09:14:01.368Z,85.74
2018-01-21T09:15:03.854Z,85.66
2018-01-21T09:16:06.313Z,86.10
2018-01-21T09:17:08.769Z,86.90
2018-01-21T09:18:11.231Z,88.34
2018-01-21T09:19:13.776Z,88.22
2018-01-21T09:20:16.247Z,87.28
2018-01-21T09:21:18.705Z,87.35
2018-01-21T09:22:21.186Z,87.64
2018-01-21T09:23:23.684Z,86.71
2018-01-21T09:24:26.449Z,86.34
2018-01-21T09:25:28.920Z,86.04
2018-01-21T09:26:31.392Z,86.32
2018-01-21T09:27:33.868Z,85.65
2018-01-21T09:28:36.336Z,85.21
2018-01-21T09:29:38.858Z,85.29
2018-01-21T09:30:41.327Z,84.68
2018-01-21T09:31:43.806Z,84.40
2018-01-21T09:32:46.266Z,85.30
2018-01-21T09:33:48.739Z,85.90
2018-01-21T09:34:52.115Z,86.86
2018-01-21T09:35:55.600Z,85.52
2018-01-21T09:36:58.081Z,85.31
2018-01-21T09:38:00.534Z,86.24
2018-01-21T09:39:02.986Z,85.76
2018-01-21T09:40:05.466Z,85.76
2018-01-21T09:41:08.024Z,86.41
2018-01-21T09:42:10.479Z,86.23
2018-01-21T09:43:12.988Z,85.41
2018-01-21T09:44:15.455Z,85.15
2018-01-21T09:45:17.946Z,85.80
2018-01-21T09:46:20.402Z,85.61
2018-01-21T09:47:22.866Z,85.67
2018-01-21T09:48:25.337Z,85.52
2018-01-21T09:49:27.891Z,86.22
2018-01-21T09:50:30.381Z,85.75
2018-01-21T09:51:32.834Z,85.38
2018-01-21T09:52:35.307Z,85.43
2018-01-21T09:53:37.782Z,84.81
2018-01-21T09:54:40.250Z,84.38
2018-01-21T09:55:42.747Z,84.68
2018-01-21T09:56:45.219Z,85.23
2018-01-21T09:57:47.727Z,84.83
2018-01-21T09:58:50.191Z,84.85
2018-01-21T09:59:52.664Z,85.37
2018-01-21T10:00:55.161Z,84.34
2018-01-21T10:01:57.635Z,84.14
2018-01-21T10:03:00.104Z,84.18
2018-01-21T10:04:02.569Z,83.54
2018-01-21T10:05:05.030Z,84.71
2018-01-21T10:06:07.510Z,83.96
2018-01-21T10:07:09.988Z,82.64
2018-01-21T10:08:12.486Z,80.42
2018-01-21T10:09:14.946Z,80.65
2018-01-21T10:10:17.455Z,81.52
2018-01-21T10:11:19.903Z,80.86
2018-01-21T10:12:22.376Z,80.63
2018-01-21T10:13:24.842Z,81.25
2018-01-21T10:14:27.352Z,78.95
2018-01-21T10:15:29.931Z,80.10
2018-01-21T10:16:32.421Z,80.26
2018-01-21T10:17:34.892Z,80.47
2018-01-21T10:18:37.368Z,82.07
2018-01-21T10:19:39.840Z,81.31
2018-01-21T10:20:42.331Z,81.17
2018-01-21T10:21:44.821Z,81.84
2018-01-21T10:22:47.274Z,80.73
2018-01-21T10:23:49.782Z,82.37
2018-01-21T10:24:52.268Z,80.31
2018-01-21T10:25:54.730Z,79.07
2018-01-21T10:26:57.248Z,77.39
2018-01-21T10:27:59.706Z,76.96
2018-01-21T10:29:02.161Z,77.68
2018-01-21T10:30:04.629Z,78.15
2018-01-21T10:31:07.106Z,77.10
2018-01-21T10:32:09.633Z,75.10
2018-01-21T10:33:12.103Z,71.51
2018-01-21T10:34:14.580Z,64.34
2018-01-21T10:35:17.112Z,62.29
2018-01-21T10:36:19.580Z,60.43
2018-01-21T10:37:22.085Z,59.39
2018-01-21T10:38:24.617Z,58.03
2018-01-21T10:39:27.111Z,59.88
2018-01-21T10:40:29.562Z,61.83
2018-01-21T10:41:32.032Z,66.69
2018-01-21T10:42:34.521Z,69.95
2018-01-21T10:43:37.000Z,69.54
2018-01-21T10:44:39.466Z,67.90
2018-01-21T10:45:41.927Z,65.76
2018-01-21T10:46:44.398Z,60.86
2018-01-21T10:47:48.264Z,60.95
2018-01-21T10:48:50.744Z,60.26
2018-01-21T10:49:53.241Z,56.65
2018-01-21T10:50:55.698Z,56.54
2018-01-21T10:51:58.150Z,55.97
2018-01-21T10:53:00.669Z,52.96
2018-01-21T10:54:03.152Z,53.71
2018-01-21T10:55:05.632Z,50.81
2018-01-21T10:56:08.085Z,48.65
2018-01-21T10:57:10.586Z,46.53
2018-01-21T10:58:13.218Z,49.61
2018-01-21T10:59:15.675Z,52.42
2018-01-21T11:00:18.147Z,52.22
2018-01-21T11:01:20.603Z,49.02
2018-01-21T11:02:23.104Z,50.09
2018-01-21T11:03:25.614Z,50.55
2018-01-21T11:04:28.228Z,49.73
2018-01-21T11:05:30.720Z,51.14
2018-01-21T11:06:33.186Z,51.65
2018-01-21T11:07:35.664Z,56.12
2018-01-21T11:08:38.180Z,56.58
2018-01-21T11:09:40.828Z,57.44
2018-01-21T11:10:43.372Z,59.53
2018-01-21T11:11:45.844Z,65.68
2018-01-21T11:12:48.312Z,67.25
2018-01-21T11:13:50.799Z,65.83
2018-01-21T11:14:53.245Z,69.03
2018-01-21T11:15:55.693Z,70.12
2018-01-21T11:16:58.150Z,70.81
2018-01-21T11:18:00.622Z,72.84
2018-01-21T11:19:03.116Z,73.18
2018-01-21T11:20:05.592Z,74.71
2018-01-21T11:21:08.058Z,73.75
2018-01-21T11:22:10.532Z,73.32
2018-01-21T11:23:13.016Z,72.51
2018-01-21T11:24:15.500Z,70.07
2018-01-21T11:25:17.975Z,68.87
2018-01-21T11:26:20.708Z,66.92
2018-01-21T11:27:23.176Z,64.32
2018-01-21T11:28:25.638Z,64.60
2018-01-21T11:29:28.130Z,65.37
2018-01-21T11:30:31.485Z,68.72
2018-01-21T11:31:33.953Z,67.28
2018-01-21T11:32:36.432Z,69.18
2018-01-21T11:33:39.852Z,71.56
2018-01-21T11:34:42.356Z,70.74
2018-01-21T11:35:44.817Z,69.57
2018-01-21T11:36:47.282Z,72.57
2018-01-21T11:37:49.761Z,73.38
2018-01-21T11:38:53.711Z,74.15
2018-01-21T11:39:59.389Z,74.83
2018-01-21T11:41:01.937Z,73.30
2018-01-21T11:42:04.475Z,74.48
2018-01-21T11:43:06.954Z,73.11
2018-01-21T11:44:09.742Z,73.33
2018-01-21T11:45:12.244Z,73.30
2018-01-21T11:46:14.716Z,72.62
2018-01-21T11:47:17.181Z,73.00
2018-01-21T11:48:19.648Z,71.31
2018-01-21T11:49:22.135Z,70.72
2018-01-21T11:50:24.602Z,67.98
2018-01-21T11:51:27.091Z,65.19
2018-01-21T11:52:29.550Z,61.68
2018-01-21T11:53:32.033Z,61.17
2018-01-21T11:54:34.504Z,59.06
2018-01-21T11:55:37.014Z,63.53
2018-01-21T11:56:39.510Z,64.96
2018-01-21T11:57:41.988Z,66.93
2018-01-21T11:58:44.452Z,66.00
2018-01-21T11:59:46.916Z,64.95
2018-01-21T12:00:49.404Z,66.62
2018-01-21T12:01:51.909Z,66.17
2018-01-21T12:02:54.405Z,66.39
2018-01-21T12:03:56.883Z,68.12
2018-01-21T12:04:59.385Z,67.78
2018-01-21T12:06:01.871Z,65.26
2018-01-21T12:07:04.371Z,65.13
2018-01-21T12:08:06.862Z,67.01
2018-01-21T12:09:09.439Z,66.80
2018-01-21T12:10:11.978Z,64.58
2018-01-21T12:11:14.515Z,64.50
2018-01-21T12:12:16.970Z,65.19
2018-01-21T12:13:19.453Z,64.81
2018-01-21T12:14:22.152Z,64.77
2018-01-21T12:15:24.626Z,64.23
2018-01-21T12:16:27.106Z,66.62
2018-01-21T12:17:29.596Z,68.79
2018-01-21T12:18:32.448Z,70.81
2018-01-21T12:19:35.565Z,71.34
2018-01-21T12:20:38.117Z,70.17
2018-01-21T12:21:40.620Z,68.89
2018-01-21T12:22:43.110Z,70.51
2018-01-21T12:23:45.774Z,71.30
2018-01-21T12:24:48.270Z,67.65
2018-01-21T12:25:50.753Z,64.92
2018-01-21T12:26:53.233Z,62.24
2018-01-21T12:27:55.694Z,63.84
2018-01-21T12:28:58.172Z,64.96
2018-01-21T12:30:00.646Z,66.56
2018-01-21T12:31:03.127Z,68.89
2018-01-21T12:32:05.614Z,69.88
2018-01-21T12:33:08.165Z,71.51
2018-01-21T12:34:10.730Z,72.11
2018-01-21T12:35:13.217Z,72.31
2018-01-21T12:36:15.696Z,73.97
2018-01-21T12:37:18.201Z,71.26
2018-01-21T12:38:20.793Z,71.42
2018-01-21T12:39:23.261Z,71.01
2018-01-21T12:40:25.907Z,71.60
2018-01-21T12:41:29.094Z,70.97
2018-01-21T12:42:31.631Z,69.09
2018-01-21T12:43:39.047Z,64.41
2018-01-21T12:44:42.198Z,60.27
2018-01-21T12:45:44.664Z,53.48
2018-01-21T12:46:47.128Z,52.92
2018-01-21T12:47:49.625Z,46.74
2018-01-21T12:48:52.102Z,47.23
2018-01-21T12:49:54.655Z,45.02
2018-01-21T12:50:57.139Z,43.77
2018-01-21T12:51:59.779Z,40.66
2018-01-21T12:53:02.300Z,42.73
2018-01-21T12:54:06.042Z,40.04
2018-01-21T12:55:08.555Z,39.22
2018-01-21T12:56:11.044Z,41.33
2018-01-21T12:57:13.570Z,44.42
2018-01-21T12:58:16.142Z,50.10
2018-01-21T12:59:18.622Z,53.88
2018-01-21T13:00:21.099Z,55.65
2018-01-21T13:01:23.676Z,58.86
2018-01-21T13:02:26.798Z,59.86
2018-01-21T13:03:29.294Z,60.16
2018-01-21T13:04:32.043Z,60.09
2018-01-21T13:05:34.522Z,62.02
2018-01-21T13:06:38.283Z,63.42
2018-01-21T13:07:40.787Z,61.13
2018-01-21T13:08:44.280Z,60.66
2018-01-21T13:09:46.751Z,60.81
2018-01-21T13:10:49.868Z,63.41
2018-01-21T13:11:52.356Z,63.90
2018-01-21T13:12:54.820Z,65.45
2018-01-21T13:13:57.443Z,65.24
2018-01-21T13:15:00.500Z,65.72
2018-01-21T13:16:02.966Z,63.93
2018-01-21T13:17:06.253Z,65.25
2018-01-21T13:18:08.966Z,61.09
2018-01-21T13:19:12.172Z,57.52
2018-01-21T13:20:14.753Z,56.07
2018-01-21T13:21:17.286Z,55.96
2018-01-21T13:22:20.079Z,54.43
2018-01-21T13:23:22.989Z,53.91
2018-01-21T13:24:25.609Z,56.21
2018-01-21T13:25:28.108Z,57.95